createdAt,value
2022-10-19T00:01:21.887Z,102981.34
2022-10-19T00:03:52.917Z,102971.91
2022-10-19T00:06:26.124Z,102965.56
2022-10-19T00:08:56.570Z,102962.03
2022-10-19T00:11:24.885Z,102971.91
2022-10-19T00:13:53.447Z,102967.72
2022-10-19T00:16:23.365Z,102970.47
2022-10-19T00:18:51.081Z,102970.81
2022-10-19T00:21:19.920Z,102976.31
2022-10-19T00:23:48.387Z,102974.66
2022-10-19T00:26:15.771Z,102978.56
2022-10-19T00:28:44.228Z,102977.13
2022-10-19T00:31:15.021Z,102974.88
2022-10-19T00:33:44.318Z,102978.66
2022-10-19T00:36:18.637Z,102976.41
2022-10-19T00:38:46.475Z,102977.72
2022-10-19T00:41:15.337Z,102981.31
2022-10-19T00:43:54.827Z,102977.72
2022-10-19T00:46:22.806Z,102978.75
2022-10-19T00:48:54.659Z,102991.75
2022-10-19T00:51:22.866Z,102989.47
2022-10-19T00:53:50.837Z,102979.25
2022-10-19T00:56:18.693Z,102978.16
2022-10-19T00:58:46.645Z,102987.47
2022-10-19T01:01:18.627Z,102991.63
2022-10-19T01:03:46.227Z,102997.06
2022-10-19T01:06:17.073Z,102987.63
2022-10-19T01:08:44.769Z,102978.72
2022-10-19T01:11:39.123Z,102979.25
2022-10-19T01:14:34.178Z,102979.47
2022-10-19T01:17:32.899Z,102980.47
2022-10-19T01:20:08.139Z,102981.28
2022-10-19T01:22:54.592Z,102980.97
2022-10-19T01:25:30.604Z,102985.38
2022-10-19T01:28:19.703Z,102976.25
2022-10-19T01:30:57.715Z,102981.28
2022-10-19T01:33:46.765Z,102977.91
2022-10-19T01:36:30.640Z,102979.22
2022-10-19T01:39:52.571Z,102968.69
2022-10-19T01:42:31.163Z,102973.09
2022-10-19T01:45:01.688Z,102969.63
2022-10-19T01:47:38.744Z,102966.03
2022-10-19T01:50:14.854Z,102964.91
2022-10-19T01:52:43.549Z,102965.75
2022-10-19T01:55:15.477Z,102956.13
2022-10-19T01:57:55.476Z,102947.84
2022-10-19T02:00:24.077Z,102951.75
2022-10-19T02:02:54.519Z,102948.97
2022-10-19T02:05:27.994Z,102953.34
2022-10-19T02:08:00.038Z,102943.13
2022-10-19T02:10:29.377Z,102949.19
2022-10-19T02:12:58.485Z,102939.75
2022-10-19T02:15:29.172Z,102928.41
2022-10-19T02:17:59.919Z,102924.22
2022-10-19T02:20:28.524Z,102915.72
2022-10-19T02:22:56.581Z,102927.47
2022-10-19T02:25:25.241Z,102924.28
2022-10-19T02:27:53.251Z,102919.78
2022-10-19T02:30:22.365Z,102914.53
2022-10-19T02:32:51.105Z,102916.13
2022-10-19T02:35:18.984Z,102923.50
2022-10-19T02:37:46.421Z,102922.00
2022-10-19T02:40:14.550Z,102924.88
2022-10-19T02:43:04.310Z,102929.66
2022-10-19T02:45:36.648Z,102928.97
2022-10-19T02:48:13.037Z,102935.72
2022-10-19T02:50:49.529Z,102937.09
2022-10-19T02:53:16.992Z,102937.06
2022-10-19T02:55:44.966Z,102925.94
2022-10-19T02:58:12.389Z,102929.63
2022-10-19T03:00:39.911Z,102935.97
2022-10-19T03:03:07.575Z,102940.56
2022-10-19T03:05:34.882Z,102933.59
2022-10-19T03:08:02.392Z,102947.94
2022-10-19T03:10:29.877Z,102944.03
2022-10-19T03:12:58.424Z,102945.34
2022-10-19T03:15:29.195Z,102947.50
2022-10-19T03:17:57.031Z,102948.84
2022-10-19T03:20:24.448Z,102946.59
2022-10-19T03:25:24.618Z,102957.00
2022-10-19T03:27:53.813Z,102953.91
2022-10-19T03:30:21.175Z,102945.84
2022-10-19T03:32:48.796Z,102942.59
2022-10-19T03:35:16.435Z,102949.56
2022-10-19T03:37:43.969Z,102955.38
2022-10-19T03:40:11.449Z,102948.22
2022-10-19T03:42:38.974Z,102943.94
2022-10-19T03:45:06.899Z,102949.03
2022-10-19T03:47:34.672Z,102954.97
2022-10-19T03:50:02.184Z,102956.50
2022-10-19T03:52:29.787Z,102958.84
2022-10-19T03:54:57.372Z,102954.03
2022-10-19T03:57:24.883Z,102955.28
2022-10-19T03:59:52.349Z,102950.28
2022-10-19T04:02:20.500Z,102948.31
2022-10-19T04:04:47.828Z,102954.59
2022-10-19T04:07:15.147Z,102951.22
2022-10-19T04:09:42.653Z,102952.47
2022-10-19T04:12:10.007Z,102946.56
2022-10-19T04:14:52.629Z,102954.63
2022-10-19T04:17:24.341Z,102964.69
2022-10-19T04:19:51.674Z,102962.03
2022-10-19T04:22:19.033Z,102963.72
2022-10-19T04:24:46.453Z,102962.03
2022-10-19T04:27:13.875Z,102953.75
2022-10-19T04:29:41.197Z,102955.47
2022-10-19T04:32:08.900Z,102954.59
2022-10-19T04:34:39.202Z,102948.25
2022-10-19T04:37:07.472Z,102944.41
2022-10-19T04:39:39.383Z,102947.44
2022-10-19T04:42:06.880Z,102950.94
2022-10-19T04:44:34.307Z,102946.47
2022-10-19T04:47:01.815Z,102947.53
2022-10-19T04:49:29.231Z,102941.41
2022-10-19T04:51:56.668Z,102954.50
2022-10-19T04:54:24.461Z,102945.13
2022-10-19T04:56:53.853Z,102946.22
2022-10-19T04:59:21.275Z,102934.72
2022-10-19T05:01:49.122Z,102936.72
2022-10-19T05:04:16.523Z,102934.84
2022-10-19T05:06:43.907Z,102935.78
2022-10-19T05:09:11.534Z,102930.88
2022-10-19T05:11:39.028Z,102939.53
2022-10-19T05:14:06.396Z,102934.13
2022-10-19T05:16:33.974Z,102940.25
2022-10-19T05:19:01.730Z,102944.56
2022-10-19T05:21:29.315Z,102945.38
2022-10-19T05:23:58.051Z,102949.91
2022-10-19T05:26:27.856Z,102949.94
2022-10-19T05:28:58.012Z,102937.09
2022-10-19T05:31:31.269Z,102951.41
2022-10-19T05:34:00.242Z,102953.03
2022-10-19T05:36:34.622Z,102947.31
2022-10-19T05:39:06.160Z,102952.03
2022-10-19T05:41:34.223Z,102949.25
2022-10-19T05:44:03.061Z,102943.75
2022-10-19T05:46:31.609Z,102953.56
2022-10-19T05:48:59.993Z,102946.84
2022-10-19T05:51:28.027Z,102943.59
2022-10-19T05:53:56.610Z,102945.16
2022-10-19T05:56:29.630Z,102944.34
2022-10-19T05:59:02.527Z,102953.09
2022-10-19T06:01:30.973Z,102956.28
2022-10-19T06:03:59.619Z,102967.53
2022-10-19T06:06:28.212Z,102965.88
2022-10-19T06:08:59.059Z,102961.69
2022-10-19T06:11:33.968Z,102961.09
2022-10-19T06:14:04.087Z,102960.47
2022-10-19T06:16:32.495Z,102966.19
2022-10-19T06:19:00.714Z,102958.22
2022-10-19T06:21:30.948Z,102960.38
2022-10-19T06:24:01.975Z,102961.72
2022-10-19T06:26:31.194Z,102953.53
2022-10-19T06:29:00.668Z,102954.97
2022-10-19T06:31:32.844Z,102952.81
2022-10-19T06:34:00.391Z,102947.63
2022-10-19T06:36:30.481Z,102950.06
2022-10-19T06:38:59.895Z,102950.06
2022-10-19T06:41:28.541Z,102953.63
2022-10-19T06:43:56.492Z,102945.34
2022-10-19T06:46:25.855Z,102945.69
2022-10-19T06:48:58.471Z,102938.81
2022-10-19T06:51:28.576Z,102945.97
2022-10-19T06:53:57.035Z,102957.00
2022-10-19T06:56:26.773Z,102950.66
2022-10-19T06:58:55.206Z,102961.91
2022-10-19T07:01:23.089Z,102971.09
2022-10-19T07:03:54.255Z,102970.91
2022-10-19T07:06:22.048Z,102977.53
2022-10-19T07:08:49.675Z,102972.91
2022-10-19T07:11:19.335Z,102974.84
2022-10-19T07:13:46.787Z,102974.13
2022-10-19T07:16:19.808Z,102981.84
2022-10-19T07:18:51.323Z,102977.25
2022-10-19T07:21:19.992Z,102989.19
2022-10-19T07:23:47.854Z,102991.09
2022-10-19T07:26:18.515Z,102990.88
2022-10-19T07:28:47.619Z,102992.88
2022-10-19T07:31:18.012Z,102993.25
2022-10-19T07:33:45.509Z,103002.34
2022-10-19T07:36:13.964Z,102997.09
2022-10-19T07:38:41.713Z,103001.06
2022-10-19T07:41:13.751Z,103005.78
2022-10-19T07:43:43.466Z,102996.41
2022-10-19T07:46:16.280Z,103001.50
2022-10-19T07:48:44.766Z,102996.31
2022-10-19T07:51:13.927Z,102998.63
2022-10-19T07:53:42.537Z,102997.56
2022-10-19T07:56:12.410Z,103005.06
2022-10-19T07:58:40.802Z,103000.06
2022-10-19T08:01:14.498Z,102996.47
2022-10-19T08:04:31.792Z,103002.97
2022-10-19T08:06:30.478Z,102998.00
2022-10-19T08:08:58.389Z,102998.03
2022-10-19T08:11:29.590Z,102993.34
2022-10-19T08:13:59.371Z,102990.72
2022-10-19T08:16:29.936Z,102995.09
2022-10-19T08:19:02.767Z,103000.06
2022-10-19T08:21:31.137Z,103008.38
2022-10-19T08:23:58.928Z,103007.06
2022-10-19T08:26:30.197Z,103014.25
2022-10-19T08:29:06.895Z,103005.66
2022-10-19T08:31:34.617Z,103000.09
2022-10-19T08:34:02.543Z,103002.88
2022-10-19T08:36:35.769Z,102996.03
2022-10-19T08:39:05.538Z,103003.91
2022-10-19T08:41:59.980Z,102994.47
2022-10-19T08:44:58.338Z,103000.50
2022-10-19T08:47:59.200Z,102994.97
2022-10-19T08:50:34.236Z,102994.31
2022-10-19T08:53:06.709Z,102988.13
2022-10-19T08:56:02.268Z,102990.72
2022-10-19T08:58:51.128Z,102973.47
2022-10-19T09:01:37.691Z,102966.44
2022-10-19T09:04:30.126Z,102961.88
2022-10-19T09:07:18.896Z,102968.88
2022-10-19T09:09:51.408Z,102977.84
2022-10-19T09:12:24.936Z,102975.72
2022-10-19T09:14:55.136Z,102983.72
2022-10-19T09:17:22.508Z,102978.16
2022-10-19T09:19:49.888Z,102971.59
2022-10-19T09:22:29.695Z,102973.56
2022-10-19T09:25:13.389Z,102988.09
2022-10-19T09:27:44.765Z,102995.09
2022-10-19T09:30:20.894Z,102998.41
2022-10-19T09:33:00.584Z,102997.22
2022-10-19T09:35:38.943Z,102984.34
2022-10-19T09:38:08.000Z,102976.38
2022-10-19T09:40:35.931Z,102975.19
2022-10-19T09:43:19.717Z,102990.53
2022-10-19T09:46:19.807Z,102980.59
2022-10-19T09:48:51.171Z,102963.63
2022-10-19T09:51:20.705Z,102959.56
2022-10-19T09:53:53.188Z,102953.19
2022-10-19T09:56:28.141Z,102952.06
2022-10-19T09:58:58.437Z,102960.69
2022-10-19T10:01:41.831Z,102956.13
2022-10-19T10:04:18.442Z,102957.59
2022-10-19T10:06:48.102Z,102958.53
2022-10-19T10:09:24.037Z,102952.34
2022-10-19T10:14:36.496Z,102943.16
2022-10-19T10:17:07.337Z,102947.34
2022-10-19T10:19:36.256Z,102944.25
2022-10-19T10:22:04.715Z,102939.81
2022-10-19T10:24:34.128Z,102936.16
2022-10-19T10:27:05.570Z,102941.81
2022-10-19T10:29:39.100Z,102942.47
2022-10-19T10:32:11.803Z,102942.50
2022-10-19T10:34:51.896Z,102944.09
2022-10-19T10:37:41.570Z,102945.22
2022-10-19T10:40:29.409Z,102931.16
2022-10-19T10:43:02.685Z,102935.03
2022-10-19T10:45:38.679Z,102927.69
2022-10-19T10:48:36.908Z,102929.22
2022-10-19T10:51:18.684Z,102927.19
2022-10-19T10:53:47.501Z,102917.81
2022-10-19T10:56:27.971Z,102905.63
2022-10-19T10:58:58.372Z,102915.44
2022-10-19T11:01:32.941Z,102909.47
2022-10-19T11:04:07.684Z,102914.53
2022-10-19T11:06:44.795Z,102913.38
2022-10-19T11:09:36.988Z,102912.00
2022-10-19T11:12:09.198Z,102903.91
2022-10-19T11:15:01.863Z,102897.69
2022-10-19T11:17:33.313Z,102897.91
2022-10-19T11:20:01.251Z,102903.72
2022-10-19T11:22:39.446Z,102890.72
2022-10-19T11:25:45.896Z,102887.22
2022-10-19T11:28:28.971Z,102881.47
2022-10-19T11:31:18.130Z,102885.13
2022-10-19T11:34:00.287Z,102877.28
2022-10-19T11:36:42.597Z,102872.56
2022-10-19T11:39:22.115Z,102881.25
2022-10-19T11:42:08.990Z,102869.81
2022-10-19T11:44:51.574Z,102859.47
2022-10-19T11:47:56.732Z,102847.03
2022-10-19T11:50:54.363Z,102839.16
2022-10-19T11:53:31.761Z,102836.59
2022-10-19T11:56:16.327Z,102828.44
2022-10-19T11:59:05.904Z,102828.72
2022-10-19T12:01:59.012Z,102829.13
2022-10-19T12:04:29.687Z,102831.03
2022-10-19T12:07:24.206Z,102826.06
2022-10-19T12:10:09.083Z,102821.78
2022-10-19T12:12:42.995Z,102814.41
2022-10-19T12:15:26.489Z,102813.50
2022-10-19T12:17:57.575Z,102804.03
2022-10-19T12:20:25.017Z,102811.72
2022-10-19T12:22:52.832Z,102797.44
2022-10-19T12:25:21.760Z,102788.22
2022-10-19T12:27:51.022Z,102779.88
2022-10-19T12:30:22.451Z,102768.19
2022-10-19T12:33:02.106Z,102768.59
2022-10-19T12:35:40.924Z,102767.47
2022-10-19T12:38:29.779Z,102763.94
2022-10-19T12:41:05.990Z,102756.06
2022-10-19T12:43:56.319Z,102750.81
2022-10-19T12:46:44.539Z,102748.38
2022-10-19T12:49:36.829Z,102737.50
2022-10-19T12:52:05.516Z,102737.34
2022-10-19T12:54:35.673Z,102736.19
2022-10-19T12:57:04.856Z,102730.53
2022-10-19T12:59:34.258Z,102732.06
2022-10-19T13:02:06.717Z,102725.91
2022-10-19T13:04:37.805Z,102720.75
2022-10-19T13:07:10.976Z,102720.81
2022-10-19T13:09:44.363Z,102717.09
2022-10-19T13:12:22.105Z,102710.19
2022-10-19T13:15:00.896Z,102703.66
2022-10-19T13:17:37.422Z,102699.84
2022-10-19T13:20:13.877Z,102698.47
2022-10-19T13:22:49.046Z,102691.66
2022-10-19T13:25:16.474Z,102686.16
2022-10-19T13:27:46.040Z,102695.44
2022-10-19T13:30:38.432Z,102684.91
2022-10-19T13:33:33.458Z,102682.81
2022-10-19T13:36:01.072Z,102692.38
2022-10-19T13:38:39.201Z,102693.63
2022-10-19T13:41:09.243Z,102681.19
2022-10-19T13:43:51.746Z,102682.41
2022-10-19T13:46:31.889Z,102671.75
2022-10-19T13:49:07.122Z,102667.84
2022-10-19T13:51:59.213Z,102668.78
2022-10-19T13:55:02.825Z,102662.63
2022-10-19T13:57:54.190Z,102650.31
2022-10-19T14:00:24.955Z,102652.94
2022-10-19T14:03:10.880Z,102652.78
2022-10-19T14:06:00.406Z,102646.63
2022-10-19T14:08:55.748Z,102645.22
2022-10-19T14:11:36.840Z,102639.34
2022-10-19T14:14:16.369Z,102633.91
2022-10-19T14:16:51.927Z,102635.91
2022-10-19T14:19:29.280Z,102630.00
2022-10-19T14:22:16.963Z,102627.97
2022-10-19T14:24:44.663Z,102632.31
2022-10-19T14:27:18.874Z,102631.81
2022-10-19T14:29:49.248Z,102628.25
2022-10-19T14:32:18.979Z,102626.41
2022-10-19T14:34:48.565Z,102618.03
2022-10-19T14:37:27.779Z,102621.56
2022-10-19T14:40:36.844Z,102618.78
2022-10-19T14:43:20.114Z,102618.03
2022-10-19T14:46:06.369Z,102615.19
2022-10-19T14:48:45.362Z,102616.88
2022-10-19T14:51:28.279Z,102614.97
2022-10-19T14:54:05.967Z,102611.72
2022-10-19T14:56:41.080Z,102615.22
2022-10-19T14:59:21.378Z,102606.75
2022-10-19T15:01:52.434Z,102608.06
2022-10-19T15:04:23.290Z,102605.28
2022-10-19T15:06:51.307Z,102606.47
2022-10-19T15:09:37.656Z,102612.19
2022-10-19T15:12:17.965Z,102600.31
2022-10-19T15:14:47.916Z,102594.63
2022-10-19T15:17:23.508Z,102606.38
2022-10-19T15:19:52.279Z,102600.53
2022-10-19T15:22:32.859Z,102597.28
2022-10-19T15:25:07.902Z,102594.03
2022-10-19T15:27:36.741Z,102594.56
2022-10-19T15:30:19.425Z,102591.13
2022-10-19T15:32:50.112Z,102599.63
2022-10-19T15:35:27.756Z,102592.34
2022-10-19T15:38:31.292Z,102601.16
2022-10-19T15:41:04.435Z,102592.22
2022-10-19T15:43:34.612Z,102594.31
2022-10-19T15:46:09.003Z,102584.91
2022-10-19T15:48:44.408Z,102582.78
2022-10-19T15:51:24.079Z,102571.75
2022-10-19T15:53:59.471Z,102573.38
2022-10-19T15:56:29.881Z,102560.72
2022-10-19T15:59:00.705Z,102567.41
2022-10-19T16:01:31.627Z,102557.13
2022-10-19T16:03:59.780Z,102559.59
2022-10-19T16:06:30.765Z,102555.69
2022-10-19T16:08:59.252Z,102545.13
2022-10-19T16:11:28.911Z,102547.53
2022-10-19T16:13:56.417Z,102544.13
2022-10-19T16:16:27.665Z,102530.31
2022-10-19T16:18:55.905Z,102525.28
2022-10-19T16:21:31.741Z,102514.53
2022-10-19T16:24:00.043Z,102507.88
2022-10-19T16:26:28.313Z,102520.34
2022-10-19T16:28:56.525Z,102514.50
2022-10-19T16:31:24.295Z,102512.69
2022-10-19T16:33:51.819Z,102505.88
2022-10-19T16:36:20.536Z,102495.31
2022-10-19T16:38:48.596Z,102504.22
2022-10-19T16:41:16.639Z,102511.84
2022-10-19T16:43:44.291Z,102503.72
2022-10-19T16:46:11.835Z,102500.13
2022-10-19T16:48:39.279Z,102496.72
2022-10-19T16:51:07.027Z,102495.22
2022-10-19T16:53:35.417Z,102498.63
2022-10-19T16:56:07.281Z,102502.50
2022-10-19T16:58:37.148Z,102503.31
2022-10-19T17:01:12.718Z,102506.72
2022-10-19T17:03:40.269Z,102509.63
2022-10-19T17:06:08.720Z,102507.31
2022-10-19T17:09:02.348Z,102506.97
2022-10-19T17:11:27.926Z,102504.34
2022-10-19T17:13:58.404Z,102497.81
2022-10-19T17:16:28.095Z,102507.56
2022-10-19T17:18:57.389Z,102506.53
2022-10-19T17:21:28.645Z,102509.81
2022-10-19T17:24:00.020Z,102502.19
2022-10-19T17:26:29.733Z,102494.53
2022-10-19T17:28:58.305Z,102500.19
2022-10-19T17:31:26.622Z,102498.88
2022-10-19T17:33:54.990Z,102505.53
2022-10-19T17:36:28.701Z,102506.13
2022-10-19T17:38:59.141Z,102507.38
2022-10-19T17:41:27.839Z,102506.69
2022-10-19T17:43:55.752Z,102511.22
2022-10-19T17:46:29.581Z,102517.66
2022-10-19T17:48:58.408Z,102515.84
2022-10-19T17:51:30.097Z,102524.41
2022-10-19T17:53:59.673Z,102530.25
2022-10-19T17:56:28.375Z,102523.44
2022-10-19T17:58:57.309Z,102528.22
2022-10-19T18:01:25.800Z,102524.47
2022-10-19T18:03:54.121Z,102526.22
2022-10-19T18:06:33.531Z,102518.59
2022-10-19T18:09:03.261Z,102500.13
2022-10-19T18:11:40.996Z,102490.06
2022-10-19T18:14:09.936Z,102487.78
2022-10-19T18:16:46.017Z,102481.16
2022-10-19T18:19:15.542Z,102487.78
2022-10-19T18:21:44.956Z,102483.31
2022-10-19T18:24:19.291Z,102487.38
2022-10-19T18:26:48.439Z,102478.28
2022-10-19T18:29:19.131Z,102480.22
2022-10-19T18:31:51.816Z,102473.41
2022-10-19T18:34:25.099Z,102473.53
2022-10-19T18:36:53.746Z,102478.22
2022-10-19T18:39:21.791Z,102469.28
2022-10-19T18:41:56.223Z,102472.75
2022-10-19T18:44:26.557Z,102464.44
2022-10-19T18:46:56.590Z,102459.31
2022-10-19T18:49:24.478Z,102451.16
2022-10-19T18:51:55.136Z,102452.22
2022-10-19T18:54:26.694Z,102445.38
2022-10-19T18:56:55.202Z,102451.22
2022-10-19T18:59:22.958Z,102441.31
2022-10-19T19:01:50.760Z,102436.97
2022-10-19T19:04:18.880Z,102434.50
2022-10-19T19:06:46.383Z,102429.00
2022-10-19T19:09:14.286Z,102434.50
2022-10-19T19:11:43.318Z,102427.69
2022-10-19T19:14:14.785Z,102419.94
2022-10-19T19:16:44.460Z,102425.94
2022-10-19T19:19:15.708Z,102421.25
2022-10-19T19:21:44.690Z,102417.50
2022-10-19T19:24:15.711Z,102409.66
2022-10-19T19:26:48.424Z,102418.94
2022-10-19T19:29:17.511Z,102411.31
2022-10-19T19:31:45.511Z,102413.44
2022-10-19T19:34:13.176Z,102417.59
2022-10-19T19:36:48.389Z,102417.22
2022-10-19T19:39:19.580Z,102423.84
2022-10-19T19:41:48.404Z,102412.66
2022-10-19T19:44:16.479Z,102408.91
2022-10-19T19:46:43.991Z,102393.84
2022-10-19T19:49:12.098Z,102386.38
2022-10-19T19:51:39.500Z,102383.63
2022-10-19T19:54:07.166Z,102378.13
2022-10-19T19:56:35.023Z,102368.94
2022-10-19T19:59:03.782Z,102362.13
2022-10-19T20:01:32.361Z,102346.53
2022-10-19T20:06:37.490Z,102334.56
2022-10-19T20:09:07.534Z,102331.47
2022-10-19T20:11:37.260Z,102322.59
2022-10-19T20:14:07.438Z,102320.97
2022-10-19T20:16:35.577Z,102321.72
2022-10-19T20:19:12.202Z,102326.41
2022-10-19T20:21:40.610Z,102321.91
2022-10-19T20:24:08.468Z,102312.84
2022-10-19T20:26:36.548Z,102310.22
2022-10-19T20:29:05.226Z,102303.91
2022-10-19T20:31:39.583Z,102295.03
2022-10-19T20:34:13.720Z,102283.22
2022-10-19T20:36:41.628Z,102290.84
2022-10-19T20:39:09.971Z,102293.59
2022-10-19T20:41:37.524Z,102291.97
2022-10-19T20:44:05.078Z,102290.16
2022-10-19T20:46:32.536Z,102290.78
2022-10-19T20:49:01.716Z,102284.47
2022-10-19T20:51:32.575Z,102275.09
2022-10-19T20:54:02.180Z,102270.72
2022-10-19T20:56:35.643Z,102268.59
2022-10-19T20:59:18.266Z,102261.97
2022-10-19T21:01:48.781Z,102252.91
2022-10-19T21:04:16.924Z,102248.03
2022-10-19T21:06:46.826Z,102250.59
2022-10-19T21:09:17.075Z,102257.19
2022-10-19T21:11:46.162Z,102255.25
2022-10-19T21:14:16.881Z,102264.03
2022-10-19T21:16:44.437Z,102261.28
2022-10-19T21:19:15.006Z,102259.66
2022-10-19T21:21:45.337Z,102266.78
2022-10-19T21:24:20.973Z,102256.09
2022-10-19T21:26:48.579Z,102247.00
2022-10-19T21:29:17.069Z,102238.47
2022-10-19T21:31:48.777Z,102242.66
2022-10-19T21:34:22.861Z,102243.59
2022-10-19T21:36:51.114Z,102244.22
2022-10-19T21:39:19.088Z,102244.53
2022-10-19T21:41:47.097Z,102245.66
2022-10-19T21:44:16.099Z,102242.69
2022-10-19T21:46:44.300Z,102247.19
2022-10-19T21:49:12.679Z,102247.50
2022-10-19T21:51:45.108Z,102248.75
2022-10-19T21:54:18.068Z,102249.38
2022-10-19T21:56:46.942Z,102244.81
2022-10-19T21:59:15.083Z,102236.56
2022-10-19T22:01:43.167Z,102220.38
2022-10-19T22:04:16.404Z,102211.84
2022-10-19T22:06:44.479Z,102208.56
2022-10-19T22:09:15.387Z,102203.06
2022-10-19T22:11:43.335Z,102200.66
2022-10-19T22:14:13.289Z,102203.59
2022-10-19T22:16:41.902Z,102194.22
2022-10-19T22:19:10.217Z,102196.03
2022-10-19T22:24:13.986Z,102183.53
2022-10-19T22:26:44.742Z,102178.22
2022-10-19T22:29:12.531Z,102171.94
2022-10-19T22:31:40.157Z,102163.16
2022-10-19T22:34:10.933Z,102160.75
2022-10-19T22:36:38.496Z,102171.25
2022-10-19T22:39:06.420Z,102164.59
2022-10-19T22:42:30.309Z,102156.88
2022-10-19T22:45:16.734Z,102150.84
2022-10-19T22:47:44.256Z,102135.31
2022-10-19T22:50:12.350Z,102133.41
2022-10-19T22:52:40.004Z,102140.00
2022-10-19T22:55:07.726Z,102138.13
2022-10-19T22:57:35.193Z,102138.13
2022-10-19T23:00:04.212Z,102138.97
2022-10-19T23:02:31.953Z,102141.22
2022-10-19T23:04:59.367Z,102147.63
2022-10-19T23:07:27.024Z,102143.56
2022-10-19T23:09:54.598Z,102138.06
2022-10-19T23:12:22.279Z,102138.41
2022-10-19T23:14:49.878Z,102131.91
2022-10-19T23:17:17.290Z,102131.41
2022-10-19T23:19:44.768Z,102119.72
2022-10-19T23:22:12.285Z,102123.09
2022-10-19T23:24:39.739Z,102117.09
2022-10-19T23:27:07.495Z,102112.72
2022-10-19T23:29:35.295Z,102100.13
2022-10-19T23:32:02.729Z,102114.66
2022-10-19T23:34:30.318Z,102110.09
2022-10-19T23:36:58.176Z,102107.47
2022-10-19T23:39:25.722Z,102103.72
2022-10-19T23:41:53.153Z,102099.34
2022-10-19T23:44:20.723Z,102089.09
2022-10-19T23:46:48.187Z,102082.00
2022-10-19T23:49:15.595Z,102076.81
2022-10-19T23:51:43.157Z,102080.16
2022-10-19T23:54:10.545Z,102076.59
2022-10-19T23:56:37.998Z,102072.25
2022-10-19T23:59:07.845Z,102069.31
